sensor_id;sensor_type;location;lat;lon;timestamp;P1;durP1;ratioP1;P2;durP2;ratioP2
828;SDS011;396;52.558;13.188;2022-08-14T00:01:12;6.40;;;4.07;;
828;SDS011;396;52.558;13.188;2022-08-14T00:03:40;6.60;;;3.90;;
828;SDS011;396;52.558;13.188;2022-08-14T00:06:07;7.33;;;4.33;;
828;SDS011;396;52.558;13.188;2022-08-14T00:08:34;5.47;;;3.67;;
828;SDS011;396;52.558;13.188;2022-08-14T00:11:01;5.40;;;3.70;;
828;SDS011;396;52.558;13.188;2022-08-14T00:13:28;6.30;;;3.87;;
828;SDS011;396;52.558;13.188;2022-08-14T00:15:55;7.87;;;3.80;;
828;SDS011;396;52.558;13.188;2022-08-14T00:18:24;6.17;;;3.73;;
828;SDS011;396;52.558;13.188;2022-08-14T00:20:53;7.43;;;3.80;;
828;SDS011;396;52.558;13.188;2022-08-14T00:23:20;7.13;;;4.10;;
828;SDS011;396;52.558;13.188;2022-08-14T00:25:47;6.63;;;3.40;;
828;SDS011;396;52.558;13.188;2022-08-14T00:28:15;7.63;;;4.53;;
828;SDS011;396;52.558;13.188;2022-08-14T00:30:43;5.97;;;3.47;;
828;SDS011;396;52.558;13.188;2022-08-14T00:33:10;6.60;;;3.77;;
828;SDS011;396;52.558;13.188;2022-08-14T00:35:36;6.33;;;3.57;;
828;SDS011;396;52.558;13.188;2022-08-14T00:38:04;9.67;;;4.13;;
828;SDS011;396;52.558;13.188;2022-08-14T00:40:31;6.23;;;3.80;;
828;SDS011;396;52.558;13.188;2022-08-14T00:42:57;5.97;;;3.60;;
828;SDS011;396;52.558;13.188;2022-08-14T00:45:24;6.27;;;3.97;;
828;SDS011;396;52.558;13.188;2022-08-14T00:47:51;7.87;;;4.20;;
828;SDS011;396;52.558;13.188;2022-08-14T00:50:18;5.90;;;4.00;;
828;SDS011;396;52.558;13.188;2022-08-14T00:52:47;6.70;;;4.13;;
828;SDS011;396;52.558;13.188;2022-08-14T00:55:18;4.87;;;3.10;;
828;SDS011;396;52.558;13.188;2022-08-14T00:57:46;5.00;;;3.23;;
828;SDS011;396;52.558;13.188;2022-08-14T01:00:33;6.20;;;3.70;;
828;SDS011;396;52.558;13.188;2022-08-14T01:03:00;4.93;;;3.20;;
828;SDS011;396;52.558;13.188;2022-08-14T01:05:28;6.80;;;3.83;;
828;SDS011;396;52.558;13.188;2022-08-14T01:07:55;5.67;;;3.37;;
828;SDS011;396;52.558;13.188;2022-08-14T01:10:24;6.93;;;4.43;;
828;SDS011;396;52.558;13.188;2022-08-14T01:13:13;6.13;;;3.40;;
828;SDS011;396;52.558;13.188;2022-08-14T01:15:41;6.60;;;3.93;;
828;SDS011;396;52.558;13.188;2022-08-14T01:18:08;5.70;;;3.83;;
828;SDS011;396;52.558;13.188;2022-08-14T01:20:52;5.67;;;3.80;;
828;SDS011;396;52.558;13.188;2022-08-14T01:23:32;6.13;;;3.77;;
828;SDS011;396;52.558;13.188;2022-08-14T01:25:59;8.03;;;4.00;;
828;SDS011;396;52.558;13.188;2022-08-14T01:28:26;5.33;;;3.70;;
828;SDS011;396;52.558;13.188;2022-08-14T01:30:55;7.43;;;4.23;;
828;SDS011;396;52.558;13.188;2022-08-14T01:33:22;7.80;;;4.40;;
828;SDS011;396;52.558;13.188;2022-08-14T01:35:52;6.40;;;4.20;;
828;SDS011;396;52.558;13.188;2022-08-14T01:38:20;7.63;;;3.57;;
828;SDS011;396;52.558;13.188;2022-08-14T01:40:49;6.87;;;4.30;;
828;SDS011;396;52.558;13.188;2022-08-14T01:43:16;6.40;;;3.70;;
828;SDS011;396;52.558;13.188;2022-08-14T01:45:43;5.30;;;3.37;;
828;SDS011;396;52.558;13.188;2022-08-14T01:48:10;8.63;;;4.03;;
828;SDS011;396;52.558;13.188;2022-08-14T01:50:37;7.70;;;4.10;;
828;SDS011;396;52.558;13.188;2022-08-14T01:53:05;9.83;;;4.87;;
828;SDS011;396;52.558;13.188;2022-08-14T01:55:32;6.03;;;4.03;;
828;SDS011;396;52.558;13.188;2022-08-14T01:58:00;6.67;;;3.97;;
828;SDS011;396;52.558;13.188;2022-08-14T02:00:27;7.17;;;4.00;;
828;SDS011;396;52.558;13.188;2022-08-14T02:02:54;6.43;;;4.60;;
828;SDS011;396;52.558;13.188;2022-08-14T02:05:22;6.90;;;4.47;;
828;SDS011;396;52.558;13.188;2022-08-14T02:07:55;6.67;;;3.93;;
828;SDS011;396;52.558;13.188;2022-08-14T02:10:21;6.77;;;4.30;;
828;SDS011;396;52.558;13.188;2022-08-14T02:12:48;8.47;;;5.13;;
828;SDS011;396;52.558;13.188;2022-08-14T02:15:16;5.87;;;3.67;;
828;SDS011;396;52.558;13.188;2022-08-14T02:17:45;7.77;;;4.90;;
828;SDS011;396;52.558;13.188;2022-08-14T02:20:13;6.67;;;3.90;;
828;SDS011;396;52.558;13.188;2022-08-14T02:22:39;6.20;;;4.20;;
828;SDS011;396;52.558;13.188;2022-08-14T02:25:07;7.13;;;4.10;;
828;SDS011;396;52.558;13.188;2022-08-14T02:27:34;7.30;;;4.13;;
828;SDS011;396;52.558;13.188;2022-08-14T02:30:01;8.40;;;4.80;;
828;SDS011;396;52.558;13.188;2022-08-14T02:32:29;7.37;;;3.80;;
828;SDS011;396;52.558;13.188;2022-08-14T02:34:57;7.80;;;4.80;;
828;SDS011;396;52.558;13.188;2022-08-14T02:37:24;6.50;;;3.80;;
828;SDS011;396;52.558;13.188;2022-08-14T02:39:51;7.53;;;4.20;;
828;SDS011;396;52.558;13.188;2022-08-14T02:42:18;7.90;;;4.70;;
828;SDS011;396;52.558;13.188;2022-08-14T02:44:45;6.90;;;4.57;;
828;SDS011;396;52.558;13.188;2022-08-14T02:47:13;6.50;;;3.53;;
828;SDS011;396;52.558;13.188;2022-08-14T02:49:43;7.07;;;4.23;;
828;SDS011;396;52.558;13.188;2022-08-14T02:52:09;8.40;;;5.00;;
828;SDS011;396;52.558;13.188;2022-08-14T02:54:37;8.40;;;4.10;;
828;SDS011;396;52.558;13.188;2022-08-14T02:57:04;7.10;;;4.70;;
828;SDS011;396;52.558;13.188;2022-08-14T02:59:31;12.40;;;5.53;;
828;SDS011;396;52.558;13.188;2022-08-14T03:01:58;6.60;;;4.70;;
828;SDS011;396;52.558;13.188;2022-08-14T03:04:25;8.27;;;4.70;;
828;SDS011;396;52.558;13.188;2022-08-14T03:06:54;8.70;;;4.33;;
828;SDS011;396;52.558;13.188;2022-08-14T03:09:21;6.70;;;3.67;;
828;SDS011;396;52.558;13.188;2022-08-14T03:11:48;7.83;;;4.37;;
828;SDS011;396;52.558;13.188;2022-08-14T03:14:14;5.80;;;3.60;;
828;SDS011;396;52.558;13.188;2022-08-14T03:16:41;7.20;;;4.43;;
828;SDS011;396;52.558;13.188;2022-08-14T03:19:09;9.50;;;3.73;;
828;SDS011;396;52.558;13.188;2022-08-14T03:21:36;6.27;;;3.93;;
828;SDS011;396;52.558;13.188;2022-08-14T03:24:05;7.53;;;4.40;;
828;SDS011;396;52.558;13.188;2022-08-14T03:26:36;6.93;;;4.33;;
828;SDS011;396;52.558;13.188;2022-08-14T03:29:03;8.10;;;4.73;;
828;SDS011;396;52.558;13.188;2022-08-14T03:31:31;7.03;;;4.20;;
828;SDS011;396;52.558;13.188;2022-08-14T03:33:58;5.60;;;3.90;;
828;SDS011;396;52.558;13.188;2022-08-14T03:36:25;8.80;;;4.30;;
828;SDS011;396;52.558;13.188;2022-08-14T03:38:52;5.47;;;3.60;;
828;SDS011;396;52.558;13.188;2022-08-14T03:41:23;7.93;;;4.53;;
828;SDS011;396;52.558;13.188;2022-08-14T03:43:52;5.63;;;3.90;;
828;SDS011;396;52.558;13.188;2022-08-14T03:46:20;7.20;;;4.70;;
828;SDS011;396;52.558;13.188;2022-08-14T03:48:47;7.80;;;5.10;;
828;SDS011;396;52.558;13.188;2022-08-14T03:51:14;5.93;;;4.13;;
828;SDS011;396;52.558;13.188;2022-08-14T03:53:42;7.67;;;4.13;;
828;SDS011;396;52.558;13.188;2022-08-14T03:56:11;6.93;;;4.60;;
828;SDS011;396;52.558;13.188;2022-08-14T03:58:41;7.50;;;4.70;;
828;SDS011;396;52.558;13.188;2022-08-14T04:01:09;7.47;;;4.03;;
828;SDS011;396;52.558;13.188;2022-08-14T04:03:36;6.63;;;4.50;;
828;SDS011;396;52.558;13.188;2022-08-14T04:06:03;6.03;;;3.87;;
828;SDS011;396;52.558;13.188;2022-08-14T04:08:29;6.77;;;4.10;;
828;SDS011;396;52.558;13.188;2022-08-14T04:11:00;8.33;;;5.10;;
828;SDS011;396;52.558;13.188;2022-08-14T04:13:26;6.70;;;4.13;;
828;SDS011;396;52.558;13.188;2022-08-14T04:15:55;14.60;;;5.10;;
828;SDS011;396;52.558;13.188;2022-08-14T04:18:21;7.13;;;4.63;;
828;SDS011;396;52.558;13.188;2022-08-14T04:20:48;6.63;;;4.40;;
828;SDS011;396;52.558;13.188;2022-08-14T04:23:15;6.53;;;4.20;;
828;SDS011;396;52.558;13.188;2022-08-14T04:25:41;10.60;;;4.73;;
828;SDS011;396;52.558;13.188;2022-08-14T04:28:11;5.90;;;3.60;;
828;SDS011;396;52.558;13.188;2022-08-14T04:30:39;8.63;;;4.40;;
828;SDS011;396;52.558;13.188;2022-08-14T04:33:07;6.60;;;3.60;;
828;SDS011;396;52.558;13.188;2022-08-14T04:35:34;7.13;;;4.80;;
828;SDS011;396;52.558;13.188;2022-08-14T04:38:04;7.60;;;4.73;;
828;SDS011;396;52.558;13.188;2022-08-14T04:40:49;17.97;;;4.47;;
828;SDS011;396;52.558;13.188;2022-08-14T04:43:32;8.47;;;4.27;;
828;SDS011;396;52.558;13.188;2022-08-14T04:46:02;5.80;;;4.10;;
828;SDS011;396;52.558;13.188;2022-08-14T04:48:31;8.00;;;4.90;;
828;SDS011;396;52.558;13.188;2022-08-14T04:50:58;6.20;;;4.20;;
828;SDS011;396;52.558;13.188;2022-08-14T04:53:27;10.13;;;4.90;;
828;SDS011;396;52.558;13.188;2022-08-14T04:55:55;12.93;;;4.53;;
828;SDS011;396;52.558;13.188;2022-08-14T04:58:22;8.57;;;4.73;;
828;SDS011;396;52.558;13.188;2022-08-14T05:00:50;8.60;;;5.17;;
828;SDS011;396;52.558;13.188;2022-08-14T05:03:19;7.57;;;4.60;;
828;SDS011;396;52.558;13.188;2022-08-14T05:05:48;6.77;;;4.70;;
828;SDS011;396;52.558;13.188;2022-08-14T05:08:15;10.13;;;5.67;;
828;SDS011;396;52.558;13.188;2022-08-14T05:10:44;10.60;;;5.13;;
828;SDS011;396;52.558;13.188;2022-08-14T05:13:13;11.43;;;5.57;;
828;SDS011;396;52.558;13.188;2022-08-14T05:15:40;14.80;;;5.30;;
828;SDS011;396;52.558;13.188;2022-08-14T05:18:09;6.90;;;4.17;;
828;SDS011;396;52.558;13.188;2022-08-14T05:20:38;6.57;;;4.27;;
828;SDS011;396;52.558;13.188;2022-08-14T05:23:07;7.90;;;4.97;;
828;SDS011;396;52.558;13.188;2022-08-14T05:25:34;6.50;;;4.33;;
828;SDS011;396;52.558;13.188;2022-08-14T05:28:05;6.77;;;4.43;;
828;SDS011;396;52.558;13.188;2022-08-14T05:30:33;8.07;;;4.60;;
828;SDS011;396;52.558;13.188;2022-08-14T05:33:00;7.80;;;4.20;;
828;SDS011;396;52.558;13.188;2022-08-14T05:35:26;8.00;;;5.07;;
828;SDS011;396;52.558;13.188;2022-08-14T05:37:53;6.00;;;4.60;;
828;SDS011;396;52.558;13.188;2022-08-14T05:40:21;9.23;;;5.10;;
828;SDS011;396;52.558;13.188;2022-08-14T05:42:48;7.00;;;4.03;;
828;SDS011;396;52.558;13.188;2022-08-14T05:45:14;8.80;;;4.77;;
828;SDS011;396;52.558;13.188;2022-08-14T05:47:41;7.63;;;4.90;;
828;SDS011;396;52.558;13.188;2022-08-14T05:50:09;6.77;;;3.90;;
828;SDS011;396;52.558;13.188;2022-08-14T05:52:37;7.03;;;4.33;;
828;SDS011;396;52.558;13.188;2022-08-14T05:55:04;7.13;;;4.30;;
828;SDS011;396;52.558;13.188;2022-08-14T05:57:33;7.00;;;4.40;;
828;SDS011;396;52.558;13.188;2022-08-14T06:00:11;7.70;;;5.50;;
828;SDS011;396;52.558;13.188;2022-08-14T06:05:15;6.63;;;4.60;;
828;SDS011;396;52.558;13.188;2022-08-14T06:07:42;7.93;;;5.03;;
828;SDS011;396;52.558;13.188;2022-08-14T06:10:09;7.27;;;4.47;;
828;SDS011;396;52.558;13.188;2022-08-14T06:12:37;9.10;;;4.83;;
828;SDS011;396;52.558;13.188;2022-08-14T06:15:05;5.90;;;4.20;;
828;SDS011;396;52.558;13.188;2022-08-14T06:17:41;8.23;;;3.60;;
828;SDS011;396;52.558;13.188;2022-08-14T06:20:08;8.53;;;4.43;;
828;SDS011;396;52.558;13.188;2022-08-14T06:22:36;7.70;;;4.80;;
828;SDS011;396;52.558;13.188;2022-08-14T06:25:02;7.63;;;4.33;;
828;SDS011;396;52.558;13.188;2022-08-14T06:27:33;9.53;;;4.90;;
828;SDS011;396;52.558;13.188;2022-08-14T06:30:02;7.50;;;3.77;;
828;SDS011;396;52.558;13.188;2022-08-14T06:32:29;7.97;;;4.47;;
828;SDS011;396;52.558;13.188;2022-08-14T06:34:56;7.53;;;4.73;;
828;SDS011;396;52.558;13.188;2022-08-14T06:37:22;9.50;;;5.10;;
828;SDS011;396;52.558;13.188;2022-08-14T06:39:48;6.83;;;4.50;;
828;SDS011;396;52.558;13.188;2022-08-14T06:42:15;6.50;;;4.63;;
828;SDS011;396;52.558;13.188;2022-08-14T06:44:42;8.03;;;4.70;;
828;SDS011;396;52.558;13.188;2022-08-14T06:47:10;11.43;;;5.03;;
828;SDS011;396;52.558;13.188;2022-08-14T06:49:36;9.97;;;4.93;;
828;SDS011;396;52.558;13.188;2022-08-14T06:52:03;6.03;;;3.47;;
828;SDS011;396;52.558;13.188;2022-08-14T06:54:29;7.13;;;4.33;;
828;SDS011;396;52.558;13.188;2022-08-14T06:56:56;8.50;;;4.90;;
828;SDS011;396;52.558;13.188;2022-08-14T06:59:22;7.20;;;3.90;;
828;SDS011;396;52.558;13.188;2022-08-14T07:01:49;11.90;;;4.67;;
828;SDS011;396;52.558;13.188;2022-08-14T07:04:34;8.90;;;4.70;;
828;SDS011;396;52.558;13.188;2022-08-14T07:07:18;7.37;;;4.40;;
828;SDS011;396;52.558;13.188;2022-08-14T07:09:45;10.73;;;4.60;;
828;SDS011;396;52.558;13.188;2022-08-14T07:12:11;9.73;;;5.30;;
828;SDS011;396;52.558;13.188;2022-08-14T07:14:38;10.97;;;4.83;;
828;SDS011;396;52.558;13.188;2022-08-14T07:17:05;7.10;;;4.17;;
828;SDS011;396;52.558;13.188;2022-08-14T07:19:31;9.50;;;5.70;;
828;SDS011;396;52.558;13.188;2022-08-14T07:21:59;13.03;;;4.93;;
828;SDS011;396;52.558;13.188;2022-08-14T07:24:25;9.73;;;4.60;;
828;SDS011;396;52.558;13.188;2022-08-14T07:26:52;7.20;;;4.10;;
828;SDS011;396;52.558;13.188;2022-08-14T07:29:18;12.03;;;5.47;;
828;SDS011;396;52.558;13.188;2022-08-14T07:31:46;7.23;;;5.07;;
828;SDS011;396;52.558;13.188;2022-08-14T07:34:12;7.70;;;4.50;;
828;SDS011;396;52.558;13.188;2022-08-14T07:36:39;7.73;;;4.57;;
828;SDS011;396;52.558;13.188;2022-08-14T07:39:06;6.93;;;4.13;;
828;SDS011;396;52.558;13.188;2022-08-14T07:41:33;6.73;;;3.60;;
828;SDS011;396;52.558;13.188;2022-08-14T07:43:59;6.80;;;4.43;;
828;SDS011;396;52.558;13.188;2022-08-14T07:46:26;8.27;;;4.27;;
828;SDS011;396;52.558;13.188;2022-08-14T07:48:53;8.33;;;5.07;;
828;SDS011;396;52.558;13.188;2022-08-14T07:51:20;8.13;;;4.97;;
828;SDS011;396;52.558;13.188;2022-08-14T07:53:47;8.57;;;4.60;;
828;SDS011;396;52.558;13.188;2022-08-14T07:56:16;11.33;;;4.60;;
828;SDS011;396;52.558;13.188;2022-08-14T07:58:43;8.57;;;4.47;;
828;SDS011;396;52.558;13.188;2022-08-14T08:01:10;8.23;;;4.20;;
828;SDS011;396;52.558;13.188;2022-08-14T08:03:37;8.43;;;4.47;;
828;SDS011;396;52.558;13.188;2022-08-14T08:06:07;9.47;;;4.60;;
828;SDS011;396;52.558;13.188;2022-08-14T08:08:34;8.50;;;4.37;;
828;SDS011;396;52.558;13.188;2022-08-14T08:11:00;6.90;;;4.10;;
828;SDS011;396;52.558;13.188;2022-08-14T08:13:28;6.60;;;3.63;;
828;SDS011;396;52.558;13.188;2022-08-14T08:15:58;5.90;;;3.60;;
828;SDS011;396;52.558;13.188;2022-08-14T08:18:27;7.17;;;3.40;;
828;SDS011;396;52.558;13.188;2022-08-14T08:20:53;5.07;;;3.43;;
828;SDS011;396;52.558;13.188;2022-08-14T08:23:21;12.80;;;3.60;;
828;SDS011;396;52.558;13.188;2022-08-14T08:25:50;5.70;;;3.50;;
828;SDS011;396;52.558;13.188;2022-08-14T08:28:17;7.00;;;4.10;;
828;SDS011;396;52.558;13.188;2022-08-14T08:30:48;5.50;;;3.63;;
828;SDS011;396;52.558;13.188;2022-08-14T08:33:17;5.27;;;3.20;;
828;SDS011;396;52.558;13.188;2022-08-14T08:35:44;8.77;;;5.27;;
828;SDS011;396;52.558;13.188;2022-08-14T08:38:13;7.43;;;4.00;;
828;SDS011;396;52.558;13.188;2022-08-14T08:40:42;7.30;;;4.03;;
828;SDS011;396;52.558;13.188;2022-08-14T08:43:16;6.57;;;4.07;;
828;SDS011;396;52.558;13.188;2022-08-14T08:45:52;5.33;;;3.33;;
828;SDS011;396;52.558;13.188;2022-08-14T08:48:20;6.53;;;3.80;;
828;SDS011;396;52.558;13.188;2022-08-14T08:50:48;9.00;;;3.50;;
828;SDS011;396;52.558;13.188;2022-08-14T08:53:15;9.90;;;4.30;;
828;SDS011;396;52.558;13.188;2022-08-14T08:55:42;5.20;;;3.30;;
828;SDS011;396;52.558;13.188;2022-08-14T08:58:11;7.77;;;4.23;;
828;SDS011;396;52.558;13.188;2022-08-14T09:00:40;6.67;;;4.00;;
828;SDS011;396;52.558;13.188;2022-08-14T09:03:10;9.03;;;3.83;;
828;SDS011;396;52.558;13.188;2022-08-14T09:05:47;8.13;;;4.80;;
828;SDS011;396;52.558;13.188;2022-08-14T09:08:16;5.77;;;3.97;;
828;SDS011;396;52.558;13.188;2022-08-14T09:10:44;6.77;;;3.80;;
828;SDS011;396;52.558;13.188;2022-08-14T09:13:11;5.13;;;3.60;;
828;SDS011;396;52.558;13.188;2022-08-14T09:15:39;6.40;;;4.20;;
828;SDS011;396;52.558;13.188;2022-08-14T09:18:08;6.60;;;4.00;;
828;SDS011;396;52.558;13.188;2022-08-14T09:20:37;6.70;;;3.70;;
828;SDS011;396;52.558;13.188;2022-08-14T09:23:05;5.67;;;3.70;;
828;SDS011;396;52.558;13.188;2022-08-14T09:25:32;5.97;;;3.90;;
828;SDS011;396;52.558;13.188;2022-08-14T09:28:00;5.70;;;3.77;;
828;SDS011;396;52.558;13.188;2022-08-14T09:30:28;5.47;;;4.03;;
828;SDS011;396;52.558;13.188;2022-08-14T09:33:03;10.03;;;4.03;;
828;SDS011;396;52.558;13.188;2022-08-14T09:35:50;7.83;;;3.50;;
828;SDS011;396;52.558;13.188;2022-08-14T09:38:27;4.80;;;2.97;;
828;SDS011;396;52.558;13.188;2022-08-14T09:41:04;12.13;;;3.80;;
828;SDS011;396;52.558;13.188;2022-08-14T09:43:41;6.03;;;4.00;;
828;SDS011;396;52.558;13.188;2022-08-14T09:46:11;5.40;;;2.63;;
828;SDS011;396;52.558;13.188;2022-08-14T09:48:41;4.60;;;3.43;;
828;SDS011;396;52.558;13.188;2022-08-14T09:51:08;5.87;;;3.50;;
828;SDS011;396;52.558;13.188;2022-08-14T09:53:58;4.20;;;2.90;;
828;SDS011;396;52.558;13.188;2022-08-14T09:56:26;4.30;;;2.37;;
828;SDS011;396;52.558;13.188;2022-08-14T09:58:56;5.03;;;3.23;;
828;SDS011;396;52.558;13.188;2022-08-14T10:01:34;5.50;;;3.50;;
828;SDS011;396;52.558;13.188;2022-08-14T10:04:04;5.13;;;3.20;;
828;SDS011;396;52.558;13.188;2022-08-14T10:06:43;4.23;;;3.00;;
828;SDS011;396;52.558;13.188;2022-08-14T10:09:10;5.37;;;3.60;;
828;SDS011;396;52.558;13.188;2022-08-14T10:11:37;5.37;;;3.33;;
828;SDS011;396;52.558;13.188;2022-08-14T10:14:12;4.70;;;3.43;;
828;SDS011;396;52.558;13.188;2022-08-14T10:16:42;6.03;;;3.43;;
828;SDS011;396;52.558;13.188;2022-08-14T10:19:11;6.73;;;3.47;;
828;SDS011;396;52.558;13.188;2022-08-14T10:21:42;5.97;;;3.60;;
828;SDS011;396;52.558;13.188;2022-08-14T10:24:21;5.00;;;3.10;;
828;SDS011;396;52.558;13.188;2022-08-14T10:26:52;4.87;;;3.20;;
828;SDS011;396;52.558;13.188;2022-08-14T10:29:28;5.27;;;3.10;;
828;SDS011;396;52.558;13.188;2022-08-14T10:31:57;5.07;;;3.03;;
828;SDS011;396;52.558;13.188;2022-08-14T10:34:29;4.97;;;3.53;;
828;SDS011;396;52.558;13.188;2022-08-14T10:37:01;7.13;;;3.80;;
828;SDS011;396;52.558;13.188;2022-08-14T10:39:29;5.30;;;3.57;;
828;SDS011;396;52.558;13.188;2022-08-14T10:42:00;5.30;;;3.40;;
828;SDS011;396;52.558;13.188;2022-08-14T10:44:31;5.87;;;3.40;;
828;SDS011;396;52.558;13.188;2022-08-14T10:46:59;7.00;;;3.50;;
828;SDS011;396;52.558;13.188;2022-08-14T10:49:33;5.37;;;3.37;;
828;SDS011;396;52.558;13.188;2022-08-14T10:52:02;5.70;;;3.17;;
828;SDS011;396;52.558;13.188;2022-08-14T10:54:33;4.33;;;3.07;;
828;SDS011;396;52.558;13.188;2022-08-14T10:57:12;4.60;;;2.47;;
828;SDS011;396;52.558;13.188;2022-08-14T10:59:41;6.30;;;3.60;;
828;SDS011;396;52.558;13.188;2022-08-14T11:02:19;5.20;;;2.37;;
828;SDS011;396;52.558;13.188;2022-08-14T11:05:03;4.97;;;3.60;;
828;SDS011;396;52.558;13.188;2022-08-14T11:07:32;5.43;;;2.90;;
828;SDS011;396;52.558;13.188;2022-08-14T11:10:03;5.13;;;2.97;;
828;SDS011;396;52.558;13.188;2022-08-14T11:12:40;4.67;;;3.20;;
828;SDS011;396;52.558;13.188;2022-08-14T11:15:12;4.67;;;2.83;;
828;SDS011;396;52.558;13.188;2022-08-14T11:17:40;5.03;;;2.93;;
828;SDS011;396;52.558;13.188;2022-08-14T11:20:09;4.00;;;2.50;;
828;SDS011;396;52.558;13.188;2022-08-14T11:22:36;4.53;;;3.00;;
828;SDS011;396;52.558;13.188;2022-08-14T11:25:06;4.10;;;2.73;;
828;SDS011;396;52.558;13.188;2022-08-14T11:27:35;7.80;;;2.97;;
828;SDS011;396;52.558;13.188;2022-08-14T11:30:05;3.90;;;2.00;;
828;SDS011;396;52.558;13.188;2022-08-14T11:32:34;5.23;;;2.13;;
828;SDS011;396;52.558;13.188;2022-08-14T11:35:02;4.07;;;2.27;;
828;SDS011;396;52.558;13.188;2022-08-14T11:37:30;4.20;;;2.20;;
828;SDS011;396;52.558;13.188;2022-08-14T11:39:58;3.60;;;2.10;;
828;SDS011;396;52.558;13.188;2022-08-14T11:42:26;3.73;;;2.27;;
828;SDS011;396;52.558;13.188;2022-08-14T11:44:55;4.20;;;2.63;;
828;SDS011;396;52.558;13.188;2022-08-14T11:47:24;4.20;;;2.63;;
828;SDS011;396;52.558;13.188;2022-08-14T11:49:50;3.10;;;1.90;;
828;SDS011;396;52.558;13.188;2022-08-14T11:52:18;4.50;;;2.60;;
828;SDS011;396;52.558;13.188;2022-08-14T11:54:55;6.07;;;2.13;;
828;SDS011;396;52.558;13.188;2022-08-14T11:57:22;5.23;;;2.87;;
828;SDS011;396;52.558;13.188;2022-08-14T11:59:58;5.57;;;3.03;;
828;SDS011;396;52.558;13.188;2022-08-14T12:02:25;4.87;;;2.43;;
828;SDS011;396;52.558;13.188;2022-08-14T12:04:52;4.80;;;2.50;;
828;SDS011;396;52.558;13.188;2022-08-14T12:07:19;5.30;;;2.30;;
828;SDS011;396;52.558;13.188;2022-08-14T12:09:50;3.57;;;2.30;;
828;SDS011;396;52.558;13.188;2022-08-14T12:12:20;4.17;;;2.57;;
828;SDS011;396;52.558;13.188;2022-08-14T12:14:48;3.53;;;2.33;;
828;SDS011;396;52.558;13.188;2022-08-14T12:17:17;4.03;;;2.60;;
828;SDS011;396;52.558;13.188;2022-08-14T12:19:45;3.90;;;2.23;;
828;SDS011;396;52.558;13.188;2022-08-14T12:22:13;3.53;;;2.10;;
828;SDS011;396;52.558;13.188;2022-08-14T12:24:41;3.57;;;2.17;;
828;SDS011;396;52.558;13.188;2022-08-14T12:27:10;9.03;;;1.80;;
828;SDS011;396;52.558;13.188;2022-08-14T12:29:38;3.30;;;2.00;;
828;SDS011;396;52.558;13.188;2022-08-14T12:32:15;5.70;;;3.40;;
828;SDS011;396;52.558;13.188;2022-08-14T12:34:42;3.60;;;2.20;;
828;SDS011;396;52.558;13.188;2022-08-14T12:37:08;3.83;;;2.00;;
828;SDS011;396;52.558;13.188;2022-08-14T12:39:35;2.87;;;1.90;;
828;SDS011;396;52.558;13.188;2022-08-14T12:42:02;4.20;;;2.30;;
828;SDS011;396;52.558;13.188;2022-08-14T12:44:34;4.90;;;2.30;;
828;SDS011;396;52.558;13.188;2022-08-14T12:47:03;3.73;;;2.03;;
828;SDS011;396;52.558;13.188;2022-08-14T12:49:31;3.80;;;2.33;;
828;SDS011;396;52.558;13.188;2022-08-14T12:51:59;3.50;;;2.00;;
828;SDS011;396;52.558;13.188;2022-08-14T12:54:26;3.87;;;2.30;;
828;SDS011;396;52.558;13.188;2022-08-14T12:57:01;7.30;;;2.27;;
828;SDS011;396;52.558;13.188;2022-08-14T12:59:29;3.90;;;2.00;;
828;SDS011;396;52.558;13.188;2022-08-14T13:01:58;3.47;;;2.00;;
828;SDS011;396;52.558;13.188;2022-08-14T13:04:26;3.70;;;2.10;;
828;SDS011;396;52.558;13.188;2022-08-14T13:06:55;3.67;;;2.30;;
828;SDS011;396;52.558;13.188;2022-08-14T13:09:28;3.20;;;1.70;;
828;SDS011;396;52.558;13.188;2022-08-14T13:11:55;4.00;;;2.30;;
828;SDS011;396;52.558;13.188;2022-08-14T13:14:22;3.40;;;2.10;;
828;SDS011;396;52.558;13.188;2022-08-14T13:16:51;4.50;;;2.20;;
828;SDS011;396;52.558;13.188;2022-08-14T13:19:20;3.70;;;2.00;;
828;SDS011;396;52.558;13.188;2022-08-14T13:21:48;3.33;;;2.30;;
828;SDS011;396;52.558;13.188;2022-08-14T13:24:17;4.33;;;2.07;;
828;SDS011;396;52.558;13.188;2022-08-14T13:26:45;5.57;;;2.90;;
828;SDS011;396;52.558;13.188;2022-08-14T13:29:15;4.47;;;2.60;;
828;SDS011;396;52.558;13.188;2022-08-14T13:31:44;3.50;;;2.10;;
828;SDS011;396;52.558;13.188;2022-08-14T13:34:15;4.00;;;2.40;;
828;SDS011;396;52.558;13.188;2022-08-14T13:36:46;3.17;;;1.73;;
828;SDS011;396;52.558;13.188;2022-08-14T13:39:13;4.07;;;2.47;;
828;SDS011;396;52.558;13.188;2022-08-14T13:41:41;3.27;;;2.10;;
828;SDS011;396;52.558;13.188;2022-08-14T13:44:08;3.90;;;2.50;;
828;SDS011;396;52.558;13.188;2022-08-14T13:46:35;3.40;;;2.40;;
828;SDS011;396;52.558;13.188;2022-08-14T13:49:02;3.80;;;2.20;;
828;SDS011;396;52.558;13.188;2022-08-14T13:51:37;3.53;;;2.23;;
828;SDS011;396;52.558;13.188;2022-08-14T13:54:08;3.20;;;1.80;;
828;SDS011;396;52.558;13.188;2022-08-14T13:56:37;3.40;;;2.27;;
828;SDS011;396;52.558;13.188;2022-08-14T13:59:04;3.87;;;2.43;;
828;SDS011;396;52.558;13.188;2022-08-14T14:01:31;4.17;;;2.20;;
828;SDS011;396;52.558;13.188;2022-08-14T14:03:59;6.27;;;2.23;;
828;SDS011;396;52.558;13.188;2022-08-14T14:06:30;8.60;;;2.63;;
828;SDS011;396;52.558;13.188;2022-08-14T14:08:58;4.60;;;2.60;;
828;SDS011;396;52.558;13.188;2022-08-14T14:11:28;5.10;;;2.47;;
828;SDS011;396;52.558;13.188;2022-08-14T14:13:56;3.50;;;1.93;;
828;SDS011;396;52.558;13.188;2022-08-14T14:16:24;4.07;;;2.63;;
828;SDS011;396;52.558;13.188;2022-08-14T14:18:52;4.27;;;2.33;;
828;SDS011;396;52.558;13.188;2022-08-14T14:21:20;4.40;;;2.67;;
828;SDS011;396;52.558;13.188;2022-08-14T14:23:48;3.63;;;2.23;;
828;SDS011;396;52.558;13.188;2022-08-14T14:26:16;4.10;;;2.07;;
828;SDS011;396;52.558;13.188;2022-08-14T14:28:47;3.80;;;2.30;;
828;SDS011;396;52.558;13.188;2022-08-14T14:31:15;3.93;;;1.90;;
828;SDS011;396;52.558;13.188;2022-08-14T14:33:46;3.80;;;2.40;;
828;SDS011;396;52.558;13.188;2022-08-14T14:36:19;4.90;;;2.73;;
828;SDS011;396;52.558;13.188;2022-08-14T14:38:50;4.67;;;2.70;;
828;SDS011;396;52.558;13.188;2022-08-14T14:41:19;3.53;;;2.40;;
828;SDS011;396;52.558;13.188;2022-08-14T14:43:49;4.30;;;2.53;;
828;SDS011;396;52.558;13.188;2022-08-14T14:46:17;4.10;;;2.43;;
828;SDS011;396;52.558;13.188;2022-08-14T14:48:45;3.77;;;2.53;;
828;SDS011;396;52.558;13.188;2022-08-14T14:51:12;3.93;;;2.40;;
828;SDS011;396;52.558;13.188;2022-08-14T14:53:40;4.27;;;2.63;;
828;SDS011;396;52.558;13.188;2022-08-14T14:56:08;4.30;;;2.80;;
828;SDS011;396;52.558;13.188;2022-08-14T14:58:35;3.60;;;2.30;;
828;SDS011;396;52.558;13.188;2022-08-14T15:01:04;4.80;;;2.53;;
828;SDS011;396;52.558;13.188;2022-08-14T15:03:32;3.77;;;2.30;;
828;SDS011;396;52.558;13.188;2022-08-14T15:05:59;4.83;;;2.23;;
828;SDS011;396;52.558;13.188;2022-08-14T15:08:26;3.60;;;2.30;;
828;SDS011;396;52.558;13.188;2022-08-14T15:10:52;3.97;;;2.57;;
828;SDS011;396;52.558;13.188;2022-08-14T15:13:19;4.80;;;2.40;;
828;SDS011;396;52.558;13.188;2022-08-14T15:15:45;4.50;;;2.70;;
828;SDS011;396;52.558;13.188;2022-08-14T15:18:13;3.37;;;1.87;;
828;SDS011;396;52.558;13.188;2022-08-14T15:20:40;4.30;;;2.47;;
828;SDS011;396;52.558;13.188;2022-08-14T15:23:06;4.27;;;2.23;;
828;SDS011;396;52.558;13.188;2022-08-14T15:25:33;4.87;;;2.90;;
828;SDS011;396;52.558;13.188;2022-08-14T15:27:59;4.80;;;2.70;;
828;SDS011;396;52.558;13.188;2022-08-14T15:30:26;6.17;;;2.90;;
828;SDS011;396;52.558;13.188;2022-08-14T15:32:53;5.37;;;2.47;;
828;SDS011;396;52.558;13.188;2022-08-14T15:35:21;3.83;;;2.23;;
828;SDS011;396;52.558;13.188;2022-08-14T15:37:48;3.67;;;2.30;;
828;SDS011;396;52.558;13.188;2022-08-14T15:40:14;5.90;;;2.40;;
828;SDS011;396;52.558;13.188;2022-08-14T15:42:42;3.63;;;2.07;;